Time;durP1;ratioP1;P1;durP2;ratioP2;P2;SDS_P1;SDS_P2;PMS_P1;PMS_P2;Temp;Humidity;BMP_temperature;BMP_pressure;BME280_temperature;BME280_humidity;BME280_pressure;Samples;Min_cycle;Max_cycle;Signal;HPM_P1;HPM_P2
2022/02/03 00:02:21;;;;;;;12.63;4.50;;;1.70;99.90;;;2.24;100.00;-19803.25;5030066;28;20319;-60
2022/02/03 00:04:56;;;;;;;10.73;3.90;;;1.60;99.90;;;2.16;100.00;-19800.34;5030212;28;20240;-61
2022/02/03 00:07:33;;;;;;;12.60;5.10;;;1.60;99.90;;;2.09;100.00;-19797.94;5031448;28;20233;-81
2022/02/03 00:10:28;;;;;;;14.43;3.47;;;1.60;99.90;;;2.09;100.00;-19798.13;5031189;28;20312;-80
2022/02/03 00:24:20;;;;;;;11.30;3.73;;;1.60;99.90;;;2.19;100.00;-19801.53;5031817;28;20241;-81
2022/02/03 00:27:09;;;;;;;12.77;3.93;;;1.60;99.90;;;2.21;100.00;-19802.22;5041732;28;20269;-75
2022/02/03 00:29:53;;;;;;;13.00;3.67;;;1.60;99.90;;;2.27;100.00;-19804.09;5032294;28;20317;-82
2022/02/03 00:32:52;;;;;;;13.23;3.53;;;1.70;99.90;;;2.21;100.00;-19802.22;5030475;28;20316;-82
2022/02/03 00:35:42;;;;;;;9.60;3.33;;;1.60;99.90;;;2.19;100.00;-19801.38;5030186;28;20276;-82
2022/02/03 00:38:25;;;;;;;9.93;4.43;;;1.60;99.90;;;2.04;100.00;-19796.41;5030047;28;20258;-70
2022/02/03 00:49:16;;;;;;;10.53;5.07;;;1.40;99.90;;;1.81;100.00;-19788.53;5030312;28;20304;-72
2022/02/03 00:51:48;;;;;;;14.73;8.77;;;1.30;99.90;;;1.94;100.00;-19792.81;5030524;28;20259;-83
2022/02/03 00:54:19;;;;;;;14.37;8.83;;;1.30;99.90;;;1.82;100.00;-19788.88;5029282;28;20690;-79
2022/02/03 00:56:55;;;;;;;15.37;10.00;;;1.30;99.90;;;1.83;100.00;-19789.06;5029854;28;20214;-82
2022/02/03 00:59:36;;;;;;;16.10;12.13;;;1.30;99.90;;;1.84;100.00;-19789.56;5034042;28;20315;-79
2022/02/03 01:02:08;;;;;;;15.60;13.17;;;1.30;99.90;;;1.98;100.00;-19794.34;5033541;28;20839;-80
2022/02/03 01:04:40;;;;;;;17.37;11.17;;;1.30;99.90;;;1.99;100.00;-19794.69;5033852;28;20346;-81
2022/02/03 01:07:11;;;;;;;9.00;6.63;;;1.30;99.90;;;2.00;100.00;-19795.03;5033443;28;20233;-70
2022/02/03 01:09:49;;;;;;;10.73;5.27;;;1.30;99.90;;;2.03;100.00;-19796.06;5033937;28;20250;-81
2022/02/03 01:12:26;;;;;;;10.43;3.80;;;1.40;99.90;;;1.95;100.00;-19793.16;5032653;28;20583;-60
2022/02/03 01:15:09;;;;;;;10.70;3.57;;;1.40;99.90;;;2.15;100.00;-19800.00;5032808;28;20602;-61
2022/02/03 01:17:47;;;;;;;8.10;3.37;;;1.40;99.90;;;2.08;100.00;-19797.78;5013002;28;20296;-61
2022/02/03 01:34:40;;;;;;;15.60;7.77;;;1.60;99.90;;;2.24;100.00;-19803.06;5012395;28;20239;-61
2022/02/03 01:37:20;;;;;;;17.73;11.97;;;1.60;99.90;;;2.18;100.00;-19801.03;5012225;28;20227;-61
2022/02/03 01:45:53;;;;;;;15.20;10.33;;;1.40;99.90;;;2.07;100.00;-19797.44;4989508;28;20289;-60
2022/02/03 01:48:38;;;;;;;17.33;11.67;;;1.40;99.90;;;2.14;100.00;-19799.81;5008767;28;20210;-63
2022/02/03 01:53:58;;;;;;;15.53;7.27;;;1.40;99.90;;;2.09;100.00;-19798.13;5010524;28;20230;-60
2022/02/03 01:56:41;;;;;;;11.60;8.40;;;1.30;99.90;;;2.05;100.00;-19796.75;5011949;28;20310;-61
2022/02/03 01:59:22;;;;;;;12.20;9.80;;;1.30;99.90;;;1.93;100.00;-19792.66;5014556;28;20258;-73
2022/02/03 02:02:01;;;;;;;14.67;7.30;;;1.30;99.90;;;2.07;100.00;-19797.44;5020588;28;20221;-71
2022/02/03 02:05:01;;;;;;;14.83;5.67;;;1.30;99.90;;;1.87;100.00;-19790.59;5034368;28;20253;-81
2022/02/03 02:07:54;;;;;;;10.90;4.10;;;1.30;99.90;;;1.94;100.00;-19792.81;5033939;28;20234;-81
2022/02/03 02:10:58;;;;;;;11.90;3.17;;;1.30;99.90;;;2.04;100.00;-19796.41;5033782;28;20305;-73
2022/02/03 02:14:00;;;;;;;10.20;3.37;;;1.30;99.90;;;1.97;100.00;-19794.00;5033699;28;20340;-81
2022/02/03 02:17:01;;;;;;;7.90;2.50;;;1.30;99.90;;;1.86;100.00;-19790.09;5033481;28;20721;-82
2022/02/03 02:19:47;;;;;;;8.47;2.57;;;1.30;99.90;;;1.91;100.00;-19791.97;5033404;28;20303;-82
2022/02/03 02:39:34;;;;;;;10.17;3.00;;;1.50;99.90;;;2.27;100.00;-19804.28;5019370;28;20242;-80
2022/02/03 02:42:32;;;;;;;6.93;2.53;;;1.60;99.90;;;2.39;100.00;-19808.38;5046043;28;20186;-81
2022/02/03 02:45:09;;;;;;;7.33;2.70;;;1.70;99.90;;;2.59;100.00;-19814.88;5041073;28;20202;-81
2022/02/03 02:47:56;;;;;;;10.50;2.87;;;1.80;99.90;;;2.63;100.00;-19816.25;5038782;28;20316;-80
2022/02/03 02:50:36;;;;;;;11.33;3.00;;;1.90;99.90;;;2.72;100.00;-19819.31;5034529;28;20717;-81
2022/02/03 02:53:18;;;;;;;6.53;3.13;;;1.90;99.90;;;2.71;100.00;-19819.16;5032692;28;20244;-80
2022/02/03 02:56:04;;;;;;;11.83;3.33;;;2.00;99.90;;;2.75;100.00;-19820.34;5033177;28;20410;-80
2022/02/03 02:59:02;;;;;;;8.77;2.70;;;2.10;99.90;;;2.81;100.00;-19822.56;5022673;28;20717;-82
2022/02/03 03:28:54;;;;;;;9.93;2.87;;;2.20;99.90;;;3.30;100.00;-19839.16;5011889;28;20793;-81
2022/02/03 03:30:03;;;;;;;8.70;2.60;;;2.30;99.90;;;3.01;100.00;-19829.22;5032997;28;20229;-83
2022/02/03 03:33:00;;;;;;;10.10;2.97;;;2.30;99.90;;;2.95;100.00;-19827.19;5038742;28;20249;-81
2022/02/03 03:35:38;;;;;;;9.60;2.67;;;2.30;99.90;;;3.26;100.00;-19837.78;5039086;28;20316;-81
2022/02/03 03:38:10;;;;;;;8.80;2.40;;;2.30;99.90;;;2.96;100.00;-19827.69;5032196;28;20264;-82
2022/02/03 03:40:46;;;;;;;7.57;2.60;;;2.30;99.90;;;3.30;100.00;-19839.16;5031563;28;20226;-81
2022/02/03 03:43:27;;;;;;;6.60;2.80;;;2.30;99.90;;;3.20;100.00;-19835.72;5031740;28;20304;-74
2022/02/03 03:46:01;;;;;;;7.23;2.80;;;2.30;99.90;;;3.00;100.00;-19828.88;5033118;28;20237;-80
2022/02/03 03:48:41;;;;;;;9.77;2.53;;;2.30;99.90;;;2.90;100.00;-19825.47;5031556;28;20281;-82
2022/02/03 03:51:11;;;;;;;7.80;2.57;;;2.20;99.90;;;2.82;100.00;-19822.72;5032736;28;20182;-82
2022/02/03 03:53:50;;;;;;;8.67;2.70;;;2.20;99.90;;;3.12;100.00;-19833.00;5031809;28;20237;-81
2022/02/03 03:56:31;;;;;;;12.67;3.83;;;2.20;99.90;;;3.00;100.00;-19828.88;5032024;28;20323;-81
2022/02/03 03:59:25;;;;;;;7.33;2.77;;;2.20;99.90;;;3.11;100.00;-19832.81;5032227;28;20297;-81
2022/02/03 04:32:08;;;;;;;11.33;2.90;;;2.50;99.90;;;3.44;100.00;-19843.94;5051160;28;20326;-79
2022/02/03 04:37:52;;;;;;;6.57;2.77;;;2.50;99.90;;;3.35;100.00;-19840.84;5062671;28;20311;-81
2022/02/03 04:40:43;;;;;;;7.33;2.80;;;2.50;99.90;;;3.49;100.00;-19845.81;5056792;28;20729;-72
2022/02/03 04:56:21;;;;;;;7.20;2.70;;;2.70;99.90;;;3.68;100.00;-19852.13;5035301;28;20269;-82
2022/02/03 05:02:27;;;;;;;7.90;2.87;;;2.70;99.90;;;3.70;100.00;-19853.00;5035168;28;20254;-72
2022/02/03 05:05:25;;;;;;;7.67;2.60;;;2.70;99.90;;;3.67;100.00;-19851.78;5034809;28;20919;-80
2022/02/03 05:08:32;;;;;;;10.37;2.53;;;2.70;99.90;;;3.41;100.00;-19842.91;5035377;28;20234;-80
2022/02/03 05:11:45;;;;;;;8.87;2.63;;;2.70;99.90;;;3.53;100.00;-19847.00;5034901;28;20241;-82
2022/02/03 05:18:15;;;;;;;9.77;2.70;;;2.80;99.90;;;3.84;100.00;-19857.59;5031961;28;20229;-81
2022/02/03 05:21:50;;;;;;;9.03;2.80;;;2.80;99.90;;;3.92;100.00;-19860.34;5034499;28;20260;-81
2022/02/03 05:25:12;;;;;;;6.50;2.43;;;2.90;99.90;;;3.93;100.00;-19860.50;5033017;28;20616;-83
2022/02/03 05:44:11;;;;;;;4.93;2.03;;;3.20;99.90;;;4.20;100.00;-19869.75;5036102;28;20226;-81
2022/02/03 06:03:49;;;;;;;8.63;2.27;;;3.30;99.90;;;4.22;100.00;-19870.59;5053446;28;20680;-81
2022/02/03 06:06:37;;;;;;;8.80;2.40;;;3.30;99.90;;;4.32;100.00;-19874.03;5053784;28;20290;-84
2022/02/03 06:09:21;;;;;;;5.57;2.63;;;3.40;99.90;;;4.32;100.00;-19874.03;5054174;28;20245;-82
2022/02/03 06:14:52;;;;;;;7.87;2.63;;;3.50;99.90;;;4.50;100.00;-19880.16;5049396;28;20685;-70
2022/02/03 06:17:31;;;;;;;6.30;2.10;;;3.60;99.90;;;4.62;100.00;-19884.28;5053303;28;20314;-70
2022/02/03 06:22:48;;;;;;;6.57;2.50;;;3.70;99.90;;;4.67;100.00;-19885.81;5049002;28;20607;-83
2022/02/03 06:28:03;;;;;;;5.40;2.40;;;3.70;99.90;;;4.34;100.00;-19874.69;5054892;28;20251;-82
2022/02/03 06:30:31;;;;;;;9.00;2.20;;;3.70;99.90;;;4.50;100.00;-19880.00;5054501;28;20633;-81
2022/02/03 06:33:00;;;;;;;7.50;2.70;;;3.60;99.90;;;4.42;100.00;-19877.25;5055610;28;20244;-82
2022/02/03 06:35:29;;;;;;;6.67;2.53;;;3.60;99.90;;;4.45;100.00;-19878.47;5054140;28;20253;-84
2022/02/03 06:37:57;;;;;;;5.93;2.33;;;3.60;99.90;;;4.46;100.00;-19878.81;5061072;28;20250;-80
2022/02/03 06:40:25;;;;;;;6.17;2.40;;;3.70;99.90;;;4.56;100.00;-19882.06;5064930;28;20236;-82
2022/02/03 06:42:56;;;;;;;7.23;3.70;;;3.70;99.90;;;4.77;100.00;-19889.22;5052737;28;20221;-84
2022/02/03 06:45:35;;;;;;;5.73;2.40;;;3.70;99.90;;;4.62;100.00;-19884.09;5053576;28;20186;-84
2022/02/03 06:48:11;;;;;;;6.70;3.13;;;3.80;99.90;;;4.52;100.00;-19880.84;5049201;28;20209;-61
2022/02/03 06:50:44;;;;;;;8.00;3.00;;;3.70;99.90;;;4.46;100.00;-19878.81;5051220;28;20699;-61
2022/02/03 06:53:15;;;;;;;7.63;2.40;;;3.70;99.90;;;4.57;100.00;-19882.56;5051131;28;20224;-62
2022/02/03 06:55:48;;;;;;;7.13;2.37;;;3.70;99.90;;;4.56;100.00;-19882.22;5030742;28;20276;-60
2022/02/03 06:58:22;;;;;;;5.40;2.20;;;3.80;99.90;;;4.52;100.00;-19880.69;5031444;28;20318;-61
2022/02/03 07:01:00;;;;;;;8.43;2.77;;;3.80;99.90;;;4.81;100.00;-19890.78;5031434;28;20325;-60
2022/02/03 07:03:33;;;;;;;6.63;2.60;;;3.80;99.90;;;4.76;100.00;-19889.06;5031028;28;20204;-62
2022/02/03 07:06:01;;;;;;;5.67;2.00;;;3.80;99.90;;;4.62;100.00;-19884.09;5032028;28;20183;-61
2022/02/03 07:08:31;;;;;;;6.63;2.87;;;3.80;99.90;;;4.73;100.00;-19888.03;5031104;28;20320;-62
2022/02/03 07:11:01;;;;;;;6.20;3.47;;;3.80;99.90;;;4.86;100.00;-19892.47;5031159;28;20236;-61
2022/02/03 07:13:30;;;;;;;6.47;2.70;;;3.90;99.90;;;4.89;100.00;-19893.50;5031127;28;20281;-61
2022/02/03 07:15:59;;;;;;;8.87;2.60;;;4.00;99.90;;;5.01;100.00;-19897.25;5040209;28;20235;-62
2022/02/03 07:18:29;;;;;;;7.30;2.83;;;4.00;99.90;;;4.83;100.00;-19891.28;5051038;28;20250;-62
2022/02/03 07:20:57;;;;;;;4.43;2.40;;;4.00;99.90;;;4.96;100.00;-19895.72;5052144;28;20290;-60
2022/02/03 07:23:25;;;;;;;8.77;2.87;;;4.00;99.90;;;4.72;100.00;-19887.50;5051148;28;20667;-61
2022/02/03 07:25:53;;;;;;;5.20;2.70;;;4.00;99.90;;;4.72;100.00;-19887.69;5051095;28;20219;-60
2022/02/03 07:28:21;;;;;;;6.00;2.60;;;4.00;99.90;;;4.75;100.00;-19888.72;5050841;28;20278;-60
2022/02/03 07:30:50;;;;;;;8.20;2.80;;;3.90;99.90;;;4.77;100.00;-19889.22;5050762;28;20258;-62
2022/02/03 07:33:20;;;;;;;6.40;2.27;;;3.90;99.90;;;4.77;100.00;-19889.22;5050317;28;20313;-61
2022/02/03 07:35:49;;;;;;;10.93;3.23;;;3.90;99.90;;;5.01;100.00;-19897.25;5050803;28;20250;-61
2022/02/03 07:38:20;;;;;;;7.70;2.80;;;4.00;99.90;;;5.04;100.00;-19898.47;5050620;28;20331;-61
2022/02/03 07:40:49;;;;;;;9.33;2.70;;;4.10;99.90;;;4.83;100.00;-19891.28;5050588;28;20216;-60
2022/02/03 07:43:17;;;;;;;10.37;2.97;;;4.00;99.90;;;4.98;100.00;-19896.59;5050219;28;20258;-62
2022/02/03 07:45:45;;;;;;;8.70;2.97;;;4.00;99.90;;;4.80;100.00;-19890.41;5050460;28;20305;-61
2022/02/03 07:48:14;;;;;;;7.07;2.90;;;4.00;99.90;;;4.88;100.00;-19893.00;5050580;28;20205;-60
2022/02/03 07:50:42;;;;;;;7.03;2.67;;;4.00;99.90;;;4.74;100.00;-19888.19;5047914;28;20240;-60
2022/02/03 07:53:11;;;;;;;10.03;3.20;;;4.00;99.90;;;5.01;100.00;-19897.25;5050207;28;20299;-61
2022/02/03 07:55:39;;;;;;;8.43;3.20;;;4.00;99.90;;;4.96;100.00;-19895.91;5050147;28;20227;-61
2022/02/03 07:58:07;;;;;;;6.63;2.80;;;4.10;99.90;;;5.03;100.00;-19897.94;5049511;28;20227;-61
2022/02/03 08:00:36;;;;;;;9.77;3.20;;;4.10;99.90;;;5.03;100.00;-19897.94;5050944;28;20253;-60
2022/02/03 08:03:12;;;;;;;7.27;3.03;;;4.10;99.90;;;5.12;100.00;-19901.19;5050943;28;20189;-61
2022/02/03 08:05:45;;;;;;;9.50;3.50;;;4.10;99.90;;;5.10;100.00;-19900.34;5050566;28;20231;-62
2022/02/03 08:08:20;;;;;;;8.90;3.30;;;4.20;99.90;;;5.21;100.00;-19904.09;5050668;28;20234;-62
2022/02/03 08:10:51;;;;;;;8.90;3.50;;;4.30;99.90;;;5.19;100.00;-19903.59;5031476;28;20262;-62
2022/02/03 08:13:24;;;;;;;11.17;3.73;;;4.30;99.90;;;5.11;100.00;-19900.84;5039676;28;20247;-61
2022/02/03 08:16:00;;;;;;;6.43;3.87;;;4.30;99.90;;;5.19;100.00;-19903.41;5050004;28;20253;-64
2022/02/03 08:18:37;;;;;;;10.03;4.20;;;4.30;99.90;;;5.29;100.00;-19906.84;5047777;28;20209;-67
2022/02/03 08:21:07;;;;;;;9.30;3.97;;;4.40;99.90;;;5.26;100.00;-19905.97;5051580;28;20237;-66
2022/02/03 08:24:01;;;;;;;12.07;4.83;;;4.40;99.90;;;5.34;100.00;-19908.53;5050798;28;20598;-63
2022/02/03 08:32:16;;;;;;;10.93;4.50;;;4.60;99.90;;;5.71;100.00;-19921.38;4993063;28;20247;-60
2022/02/03 08:34:57;;;;;;;11.30;5.27;;;4.70;99.90;;;5.69;100.00;-19920.50;5049676;28;20319;-63
2022/02/03 08:37:41;;;;;;;9.60;4.50;;;4.70;99.90;;;5.57;100.00;-19916.56;5048616;28;20252;-68
2022/02/03 08:40:23;;;;;;;7.70;4.77;;;4.70;99.90;;;5.66;100.00;-19919.47;5048929;28;20220;-69
2022/02/03 08:42:52;;;;;;;11.53;5.87;;;4.80;99.90;;;5.66;100.00;-19919.66;5049421;28;20307;-63
2022/02/03 08:45:20;;;;;;;12.87;5.00;;;4.80;99.90;;;5.64;100.00;-19918.78;5049398;28;20242;-62
2022/02/03 08:47:49;;;;;;;14.87;5.67;;;4.80;99.90;;;5.66;100.00;-19919.66;5050254;28;20218;-63
2022/02/03 08:50:18;;;;;;;9.80;4.90;;;4.80;99.90;;;5.75;100.00;-19922.56;5049629;28;20262;-61
2022/02/03 08:52:55;;;;;;;11.17;5.00;;;4.90;99.90;;;5.65;100.00;-19919.31;5049920;28;20224;-61
2022/02/03 08:55:32;;;;;;;13.70;5.30;;;4.80;99.90;;;5.62;100.00;-19918.28;5049821;28;20260;-63
2022/02/03 09:37:37;;;;;;;11.80;6.57;;;5.40;99.90;;;6.22;100.00;-19938.47;5052899;28;20573;-61
2022/02/03 09:40:30;;;;;;;15.53;6.53;;;5.40;99.90;;;6.65;100.00;-19953.16;5052857;28;20963;-60
2022/02/03 09:59:47;;;;;;;13.20;6.77;;;6.20;99.90;;;7.44;100.00;-19980.16;5052655;28;20701;-67
2022/02/03 10:02:23;;;;;;;12.47;6.70;;;6.40;99.90;;;7.58;100.00;-19984.94;5053097;28;20212;-66
2022/02/03 10:04:55;;;;;;;14.03;7.27;;;6.50;99.90;;;7.98;100.00;-19998.59;5052504;28;20648;-68
2022/02/03 10:07:30;;;;;;;13.37;6.67;;;6.70;99.90;;;7.99;100.00;-19998.94;5052753;28;20229;-63
2022/02/03 10:10:07;;;;;;;14.13;7.20;;;6.80;99.90;;;7.77;100.00;-19991.25;5052347;28;20278;-62
2022/02/03 10:12:38;;;;;;;13.47;6.90;;;6.80;99.90;;;7.84;100.00;-19993.66;5052194;28;20247;-61
2022/02/03 10:15:10;;;;;;;14.47;7.37;;;6.80;99.90;;;7.78;100.00;-19991.59;5052259;28;20745;-62
2022/02/03 10:17:43;;;;;;;12.60;6.97;;;6.70;99.90;;;7.86;100.00;-19994.50;5051512;28;20283;-63
2022/02/03 10:20:15;;;;;;;17.57;7.27;;;6.80;99.90;;;7.65;100.00;-19987.16;5052641;28;20208;-62
2022/02/03 10:22:49;;;;;;;15.13;8.13;;;6.70;99.90;;;7.74;100.00;-19990.41;5052177;28;20225;-63
2022/02/03 10:25:24;;;;;;;12.73;6.83;;;6.70;99.90;;;7.95;100.00;-19997.41;5051759;28;20232;-62
2022/02/03 10:28:03;;;;;;;10.83;6.27;;;6.80;99.90;;;7.92;100.00;-19996.38;5051211;28;20243;-63
2022/02/03 10:30:37;;;;;;;10.47;7.10;;;6.90;99.90;;;8.09;100.00;-20002.38;5052011;28;20229;-56
2022/02/03 10:33:07;;;;;;;14.37;7.53;;;6.90;99.90;;;8.10;100.00;-20002.72;5051829;28;20275;-57
2022/02/03 10:35:43;;;;;;;13.10;6.87;;;7.10;99.90;;;8.14;100.00;-20004.06;5051700;28;20229;-58
2022/02/03 10:41:36;;;;;;;13.03;6.80;;;7.10;99.90;;;8.03;100.00;-20000.16;5051696;28;20240;-57
2022/02/03 10:44:20;;;;;;;10.83;6.93;;;7.10;99.90;;;8.34;100.00;-20010.75;5052060;28;20293;-57
2022/02/03 10:50:30;;;;;;;12.03;6.77;;;7.10;99.90;;;8.61;100.00;-20019.97;5009373;28;20233;-62
2022/02/03 10:53:24;;;;;;;11.23;6.70;;;7.20;99.90;;;8.33;100.00;-20010.41;5030349;28;20253;-63
2022/02/03 10:58:54;;;;;;;13.50;6.77;;;7.20;99.90;;;8.19;100.00;-20005.78;5030750;28;20225;-63
2022/02/03 11:01:47;;;;;;;11.87;6.90;;;7.20;99.90;;;8.36;100.00;-20011.59;5031050;28;20261;-62
2022/02/03 11:07:06;;;;;;;9.73;6.97;;;7.10;99.90;;;8.09;100.00;-20002.38;5030483;28;20775;-62
2022/02/03 11:09:48;;;;;;;15.17;6.67;;;7.10;99.90;;;8.24;100.00;-20007.31;5030273;28;20233;-63
2022/02/03 11:12:38;;;;;;;10.23;6.93;;;7.10;99.90;;;8.19;100.00;-20005.78;5030353;28;20228;-62
2022/02/03 11:15:10;;;;;;;12.33;7.20;;;7.10;99.90;;;8.44;100.00;-20014.16;5046854;28;20308;-63
2022/02/03 11:17:47;;;;;;;11.23;6.67;;;7.10;99.90;;;8.45;100.00;-20014.69;5050164;28;20212;-62
2022/02/03 11:20:23;;;;;;;11.27;6.90;;;7.10;99.90;;;8.18;100.00;-20005.28;5051123;28;20198;-63
2022/02/03 11:23:06;;;;;;;10.80;7.30;;;7.20;99.90;;;8.43;100.00;-20014.00;5050344;28;20260;-62
2022/02/03 11:25:53;;;;;;;14.30;7.20;;;7.30;99.90;;;8.21;100.00;-20006.47;5050407;28;20253;-63
2022/02/03 11:28:43;;;;;;;13.27;7.37;;;7.20;99.90;;;8.43;100.00;-20013.81;5050421;28;20229;-62
2022/02/03 11:34:31;;;;;;;14.37;7.63;;;7.30;99.90;;;8.37;100.00;-20011.94;5050155;28;20217;-64
2022/02/03 11:40:26;;;;;;;10.47;7.37;;;7.40;99.90;;;8.74;100.00;-20024.41;5013927;28;20584;-62
2022/02/03 11:43:39;;;;;;;12.20;6.40;;;7.50;99.90;;;8.83;100.00;-20027.47;5050348;28;20252;-62
2022/02/03 11:46:40;;;;;;;13.57;6.77;;;7.60;99.90;;;9.11;100.00;-20036.88;5050337;28;20233;-63
2022/02/03 11:52:29;;;;;;;11.97;6.70;;;7.90;99.90;;;9.32;100.00;-20044.06;5050722;28;20709;-61
2022/02/03 12:00:57;;;;;;;10.70;6.63;;;8.10;99.90;;;9.41;100.00;-20047.31;5025043;28;20299;-62
2022/02/03 12:04:11;;;;;;;11.20;6.57;;;8.20;99.90;;;9.44;100.00;-20048.31;5050401;28;20255;-62
2022/02/03 12:07:15;;;;;;;10.80;6.50;;;8.30;99.90;;;9.26;100.00;-20042.19;5050402;28;20248;-62
2022/02/03 12:15:48;;;;;;;9.83;6.43;;;8.50;99.90;;;9.82;100.00;-20061.13;5014052;28;20245;-65
2022/02/03 12:19:04;;;;;;;8.93;5.97;;;8.60;99.90;;;9.76;100.00;-20059.09;5050003;28;20251;-67
2022/02/03 12:21:40;;;;;;;9.10;6.00;;;8.60;99.90;;;9.76;100.00;-20059.25;5050545;28;20319;-67
2022/02/03 12:24:26;;;;;;;9.23;5.77;;;8.50;99.90;;;9.77;100.00;-20059.59;5050578;28;20225;-59
2022/02/03 12:27:03;;;;;;;7.47;5.80;;;8.60;99.90;;;9.81;100.00;-20060.97;5049798;28;20237;-60
2022/02/03 12:29:40;;;;;;;9.37;6.17;;;8.60;99.90;;;9.83;100.00;-20061.66;5050823;28;20656;-65
2022/02/03 12:32:19;;;;;;;7.37;5.70;;;8.60;99.90;;;9.83;100.00;-20061.47;5050547;28;20288;-65
2022/02/03 12:40:32;;;;;;;7.60;5.23;;;8.60;99.90;;;9.38;100.00;-20046.09;5050039;28;20268;-67
2022/02/03 12:43:24;;;;;;;8.17;5.50;;;8.50;99.90;;;9.71;100.00;-20057.56;5049731;28;20553;-69
2022/02/03 12:45:54;;;;;;;7.97;5.10;;;8.50;99.90;;;9.49;100.00;-20050.03;5049832;28;20651;-64
2022/02/03 12:48:25;;;;;;;7.10;5.80;;;8.50;99.90;;;9.26;100.00;-20042.19;5049028;28;20547;-67
2022/02/03 12:50:55;;;;;;;10.50;5.83;;;8.40;99.90;;;9.17;100.00;-20039.09;5049686;28;20235;-67
2022/02/03 12:53:30;;;;;;;6.70;4.87;;;8.40;99.90;;;9.07;100.00;-20035.69;5051879;28;20205;-67
2022/02/03 12:56:02;;;;;;;6.60;4.77;;;8.30;99.90;;;9.02;100.00;-20033.97;5053432;28;20232;-67
2022/02/03 12:58:37;;;;;;;6.23;4.83;;;8.20;99.90;;;9.13;100.00;-20037.72;5053260;28;20225;-69
2022/02/03 13:01:11;;;;;;;5.70;4.63;;;8.20;99.90;;;9.27;100.00;-20042.53;5053890;28;20255;-70
2022/02/03 13:03:42;;;;;;;7.33;5.20;;;8.20;99.90;;;9.05;100.00;-20035.00;5054276;28;20235;-73
2022/02/03 13:06:17;;;;;;;6.70;4.90;;;8.20;99.90;;;9.26;100.00;-20042.00;5054409;28;20226;-72
2022/02/03 13:08:51;;;;;;;8.20;5.50;;;8.10;99.90;;;9.29;100.00;-20043.19;5053832;28;20185;-59
2022/02/03 13:11:25;;;;;;;5.93;4.80;;;8.20;99.90;;;9.13;100.00;-20037.72;5053726;28;20282;-59
2022/02/03 13:14:07;;;;;;;6.07;5.07;;;8.20;99.90;;;9.08;100.00;-20036.03;5053609;28;20224;-59
2022/02/03 13:16:37;;;;;;;7.90;5.87;;;8.10;99.90;;;9.06;100.00;-20035.34;5053258;28;20253;-60
2022/02/03 13:19:14;;;;;;;8.83;6.27;;;8.10;99.90;;;9.06;100.00;-20035.34;5053208;28;20316;-59
2022/02/03 13:21:56;;;;;;;6.63;5.30;;;8.00;99.90;;;8.98;100.00;-20032.59;5053414;28;20328;-59
2022/02/03 13:27:16;;;;;;;6.20;4.70;;;8.10;99.90;;;8.94;100.00;-20031.25;5053319;28;20230;-61
2022/02/03 13:29:58;;;;;;;6.17;4.87;;;8.00;99.90;;;9.03;100.00;-20034.31;5052832;28;20224;-64
2022/02/03 13:32:35;;;;;;;5.53;4.67;;;8.10;99.90;;;9.16;100.00;-20038.59;5053172;28;20193;-60
2022/02/03 13:35:21;;;;;;;4.70;4.17;;;8.10;99.90;;;9.10;100.00;-20036.72;5053267;28;20284;-60
2022/02/03 13:37:58;;;;;;;5.40;4.20;;;8.20;99.90;;;9.09;100.00;-20036.38;5052457;28;20268;-61
2022/02/03 13:40:28;;;;;;;6.13;4.80;;;8.20;99.90;;;9.15;100.00;-20038.25;5053234;28;20308;-57
2022/02/03 13:43:01;;;;;;;6.70;4.20;;;8.20;99.90;;;9.15;100.00;-20038.41;5052681;28;20915;-56
2022/02/03 13:45:29;;;;;;;5.30;3.93;;;8.20;99.90;;;8.98;100.00;-20032.59;5052758;28;20245;-57
2022/02/03 13:47:59;;;;;;;6.23;4.30;;;8.20;99.90;;;9.16;100.00;-20038.75;5052184;28;20672;-64
2022/02/03 13:50:29;;;;;;;5.67;3.83;;;8.10;99.90;;;9.10;100.00;-20036.53;5053531;28;20197;-63
2022/02/03 13:53:16;;;;;;;4.67;3.80;;;8.20;99.90;;;9.08;100.00;-20035.84;5052691;28;20236;-56
2022/02/03 14:16:13;;;;;;;6.27;3.50;;;8.00;99.90;;;8.79;100.00;-20026.13;5032507;28;20317;-64
2022/02/03 14:21:36;;;;;;;4.50;3.90;;;7.90;99.90;;;8.88;100.00;-20029.03;5052536;28;20257;-62
2022/02/03 14:27:03;;;;;;;5.20;4.70;;;7.90;99.90;;;8.92;100.00;-20030.38;5051794;28;20230;-68
2022/02/03 14:29:38;;;;;;;5.73;5.13;;;7.90;99.90;;;8.98;100.00;-20032.44;5052494;28;20213;-69
2022/02/03 14:32:08;;;;;;;6.37;4.50;;;7.90;99.90;;;8.84;100.00;-20027.66;5052286;28;20715;-69
2022/02/03 14:34:37;;;;;;;5.93;4.77;;;7.90;99.90;;;8.83;100.00;-20027.47;5051242;28;20257;-69
2022/02/03 14:37:13;;;;;;;6.70;4.80;;;7.90;99.90;;;8.76;100.00;-20024.94;5051686;28;20283;-67
2022/02/03 14:39:56;;;;;;;6.83;5.40;;;7.90;99.90;;;8.53;100.00;-20017.22;5051711;28;20303;-68
2022/02/03 14:42:24;;;;;;;6.07;4.93;;;7.80;99.90;;;8.49;100.00;-20016.03;5051639;28;20399;-68
2022/02/03 14:44:53;;;;;;;6.30;5.27;;;7.80;99.90;;;8.55;100.00;-20017.91;5051301;28;20281;-68
2022/02/03 14:47:26;;;;;;;6.40;5.57;;;7.70;99.90;;;8.66;100.00;-20021.50;5052263;28;20209;-68
2022/02/03 14:49:54;;;;;;;6.10;5.47;;;7.70;99.90;;;8.54;100.00;-20017.59;5051156;28;20257;-59
2022/02/03 14:52:28;;;;;;;6.57;5.30;;;7.70;99.90;;;8.51;100.00;-20016.56;5051439;28;20321;-58
2022/02/03 14:58:03;;;;;;;7.90;5.67;;;7.70;99.90;;;8.69;100.00;-20022.72;5051230;28;20260;-59
2022/02/03 15:00:33;;;;;;;8.83;6.80;;;7.70;99.90;;;8.51;100.00;-20016.72;5031515;28;20316;-58
2022/02/03 15:03:04;;;;;;;8.10;6.20;;;7.60;99.90;;;8.49;100.00;-20015.88;5031601;28;20329;-59
2022/02/03 15:05:36;;;;;;;8.70;5.77;;;7.60;99.90;;;8.38;100.00;-20012.28;5032009;28;20289;-59
2022/02/03 15:08:15;;;;;;;7.33;5.53;;;7.60;99.90;;;8.34;100.00;-20010.75;5031915;28;20210;-59
2022/02/03 15:10:47;;;;;;;6.80;5.90;;;7.60;99.90;;;8.49;100.00;-20016.03;5031344;28;20248;-65
2022/02/03 15:13:30;;;;;;;7.00;5.60;;;7.50;99.90;;;8.46;100.00;-20014.84;5031289;28;20261;-64
2022/02/03 15:15:59;;;;;;;8.93;5.70;;;7.50;99.90;;;8.43;100.00;-20014.00;5030720;28;20303;-68
2022/02/03 15:18:27;;;;;;;7.03;5.77;;;7.50;99.90;;;8.67;100.00;-20021.84;5044447;28;20732;-68
2022/02/03 15:20:56;;;;;;;8.53;6.13;;;7.60;99.90;;;8.33;100.00;-20010.56;5051304;28;20253;-68
2022/02/03 15:23:27;;;;;;;5.73;5.13;;;7.50;99.90;;;8.23;100.00;-20006.97;5051816;28;20287;-68
2022/02/03 15:25:55;;;;;;;5.70;5.10;;;7.50;99.90;;;8.32;100.00;-20010.06;5051459;28;20288;-64
2022/02/03 15:28:24;;;;;;;6.50;5.50;;;7.50;99.90;;;8.36;100.00;-20011.44;5051124;28;20580;-62
2022/02/03 15:30:54;;;;;;;7.10;6.03;;;7.50;99.90;;;8.26;100.00;-20008.00;5051057;28;20260;-62
2022/02/03 15:33:27;;;;;;;6.67;5.10;;;7.50;99.90;;;8.42;100.00;-20013.66;5050669;28;20776;-63
2022/02/03 15:36:00;;;;;;;7.27;5.03;;;7.50;99.90;;;8.32;100.00;-20010.06;5050727;28;20241;-67
2022/02/03 15:38:33;;;;;;;6.60;5.03;;;7.50;99.90;;;8.47;100.00;-20015.19;5051533;28;20224;-55
2022/02/03 15:41:04;;;;;;;5.80;5.07;;;7.50;99.90;;;8.76;100.00;-20024.94;5050733;28;20667;-68
2022/02/03 15:43:39;;;;;;;6.63;5.20;;;7.60;99.90;;;8.49;100.00;-20016.03;5051134;28;20236;-70
2022/02/03 15:46:07;;;;;;;5.90;4.60;;;7.60;99.90;;;8.43;100.00;-20014.00;5050574;28;20629;-70
2022/02/03 15:48:41;;;;;;;5.00;4.50;;;7.50;99.90;;;8.49;100.00;-20016.03;5043876;28;20309;-63
2022/02/03 15:51:15;;;;;;;6.27;5.00;;;7.50;99.90;;;8.63;100.00;-20020.66;5030152;28;20249;-62
2022/02/03 16:13:36;;;;;;;4.27;3.87;;;7.40;99.90;;;8.44;100.00;-20014.34;5049723;28;20221;-54
2022/02/03 16:52:22;;;;;;;4.70;4.03;;;7.40;99.90;;;8.12;100.00;-20003.22;5048192;28;20225;-62
2022/02/03 16:54:51;;;;;;;4.10;3.67;;;7.40;99.90;;;8.14;100.00;-20003.91;5053446;28;20319;-62
2022/02/03 16:57:24;;;;;;;4.50;3.80;;;7.30;99.90;;;8.37;100.00;-20011.78;5054342;28;20407;-70
2022/02/03 16:59:58;;;;;;;5.03;4.13;;;7.40;99.90;;;8.32;100.00;-20010.06;5053486;28;20300;-69
2022/02/03 17:02:46;;;;;;;4.43;3.80;;;7.40;99.90;;;8.52;100.00;-20017.06;5046928;28;20215;-62
2022/02/03 17:05:14;;;;;;;5.60;4.23;;;7.40;99.90;;;8.19;100.00;-20005.78;5053554;28;20217;-63
2022/02/03 17:07:42;;;;;;;4.73;4.00;;;7.40;99.90;;;8.18;100.00;-20005.28;5054114;28;20275;-65
2022/02/03 17:10:11;;;;;;;5.57;4.97;;;7.40;99.90;;;8.26;100.00;-20008.19;5051687;28;20275;-70
2022/02/03 17:12:39;;;;;;;5.87;4.43;;;7.40;99.90;;;8.24;100.00;-20007.50;5054100;28;20221;-68